Time;durP1;ratioP1;P1;durP2;ratioP2;P2;SDS_P1;SDS_P2;PMS_P1;PMS_P2;Temp;Humidity;BMP_temperature;BMP_pressure;BME280_temperature;BME280_humidity;BME280_pressure;Samples;Min_cycle;Max_cycle;Signal;HPM_P1;HPM_P2
2022/03/12 00:01:35;;;;;;;11.10;6.68;;;;;;;-3.87;100.00;95844.03;5112551;27;20043;-46
2022/03/12 00:04:06;;;;;;;14.25;7.80;;;;;;;-3.86;100.00;95850.75;5113257;27;20048;-46
2022/03/12 00:06:34;;;;;;;15.60;6.75;;;;;;;-3.81;100.00;95841.03;5111881;27;20067;-49
2022/03/12 00:09:01;;;;;;;11.82;6.85;;;;;;;-3.74;100.00;95843.91;5113520;27;20054;-46
2022/03/12 00:11:34;;;;;;;9.20;5.70;;;;;;;-3.79;100.00;95836.63;5111374;27;20132;-46
2022/03/12 00:14:04;;;;;;;9.15;5.47;;;;;;;-3.76;100.00;95845.75;5113807;27;20047;-46
2022/03/12 00:16:33;;;;;;;13.13;6.93;;;;;;;-3.77;100.00;95844.16;5112709;27;20035;-50
2022/03/12 00:19:03;;;;;;;11.40;6.18;;;;;;;-3.86;100.00;95845.66;5112443;27;20067;-47
2022/03/12 00:21:34;;;;;;;12.73;6.30;;;;;;;-3.83;100.00;95850.53;5110807;27;20051;-48
2022/03/12 00:24:03;;;;;;;7.68;4.85;;;;;;;-3.76;100.00;95846.56;5112905;27;20054;-47
2022/03/12 00:26:33;;;;;;;10.18;5.53;;;;;;;-3.83;100.00;95835.25;5111662;27;20542;-47
2022/03/12 00:29:00;;;;;;;6.35;4.13;;;;;;;-3.87;100.00;95841.47;5109490;27;20043;-47
2022/03/12 00:31:28;;;;;;;8.05;5.22;;;;;;;-3.92;100.00;95841.03;5111969;27;20134;-50
2022/03/12 00:33:56;;;;;;;7.85;4.38;;;;;;;-4.04;100.00;95825.75;5111326;27;20058;-46
2022/03/12 00:36:23;;;;;;;8.30;4.85;;;;;;;-4.01;100.00;95826.47;5111616;27;20051;-46
2022/03/12 00:38:50;;;;;;;8.70;4.63;;;;;;;-4.03;100.00;95835.03;5112949;27;20116;-46
2022/03/12 00:41:17;;;;;;;8.63;5.05;;;;;;;-3.98;100.00;95836.41;5112053;27;20051;-47
2022/03/12 00:43:45;;;;;;;10.95;5.60;;;;;;;-3.96;100.00;95829.44;5111651;28;20745;-49
2022/03/12 00:46:12;;;;;;;11.20;6.63;;;;;;;-4.06;100.00;95827.59;5112685;28;20412;-48
2022/03/12 00:48:39;;;;;;;2.50;2.03;;;;;;;-4.25;100.00;95824.81;5111284;28;20048;-48
2022/03/12 00:51:11;;;;;;;7.85;4.70;;;;;;;-4.56;100.00;95818.69;5112268;28;20040;-50
2022/03/12 00:53:40;;;;;;;14.68;9.15;;;;;;;-4.52;100.00;95818.34;5110806;28;20443;-46
2022/03/12 00:56:07;;;;;;;13.75;6.47;;;;;;;-4.47;100.00;95821.34;5111586;28;20104;-47
2022/03/12 00:58:35;;;;;;;19.67;9.27;;;;;;;-4.47;100.00;95826.41;5111437;28;20160;-47
2022/03/12 01:01:03;;;;;;;24.10;10.05;;;;;;;-4.50;100.00;95816.50;5114414;28;20067;-48
2022/03/12 01:03:31;;;;;;;24.35;12.18;;;;;;;-4.51;100.00;95812.31;5110681;28;20511;-47
2022/03/12 01:06:00;;;;;;;12.85;7.55;;;;;;;-4.59;100.00;95812.09;5112343;28;20092;-47
2022/03/12 01:08:29;;;;;;;18.75;9.38;;;;;;;-4.63;100.00;95810.69;5112443;28;20492;-48
2022/03/12 01:10:59;;;;;;;12.05;6.93;;;;;;;-4.66;100.00;95805.84;5111600;28;20052;-47
2022/03/12 01:13:28;;;;;;;14.43;8.70;;;;;;;-4.68;100.00;95811.03;5112878;28;20051;-48
2022/03/12 01:15:55;;;;;;;17.15;11.23;;;;;;;-4.71;100.00;95818.09;5112913;28;20043;-47
2022/03/12 01:18:24;;;;;;;23.27;11.02;;;;;;;-4.67;100.00;95815.19;5112400;28;20481;-47
2022/03/12 01:20:51;;;;;;;17.63;8.45;;;;;;;-4.64;100.00;95814.16;5111685;28;20500;-47
2022/03/12 01:23:23;;;;;;;15.93;8.25;;;;;;;-4.66;100.00;95821.91;5111332;27;20043;-46
2022/03/12 01:25:51;;;;;;;11.75;7.05;;;;;;;-4.70;100.00;95824.75;5114740;27;20471;-47
2022/03/12 01:28:18;;;;;;;11.07;5.38;;;;;;;-4.68;100.00;95828.00;5114270;27;20039;-47
2022/03/12 01:30:45;;;;;;;14.27;6.90;;;;;;;-4.68;100.00;95823.75;5115480;27;20051;-46
2022/03/12 01:33:12;;;;;;;10.52;5.95;;;;;;;-4.67;100.00;95827.09;5115230;27;20043;-46
2022/03/12 01:35:39;;;;;;;13.75;5.68;;;;;;;-4.71;100.00;95829.06;5111914;27;20048;-46
2022/03/12 01:38:06;;;;;;;12.77;5.95;;;;;;;-4.69;100.00;95826.41;5113850;27;20069;-46
2022/03/12 01:40:34;;;;;;;9.63;6.25;;;;;;;-4.80;100.00;95825.44;5114090;27;20492;-48
2022/03/12 01:43:03;;;;;;;10.65;5.60;;;;;;;-4.86;100.00;95820.81;5114130;27;20039;-48
2022/03/12 01:45:30;;;;;;;13.85;7.05;;;;;;;-4.91;100.00;95827.97;5114656;27;20044;-48
2022/03/12 01:47:59;;;;;;;18.05;8.15;;;;;;;-4.93;100.00;95824.72;5114861;27;20048;-49
2022/03/12 01:50:31;;;;;;;17.13;9.80;;;;;;;-4.95;100.00;95823.19;5114760;27;20480;-46
2022/03/12 01:53:00;;;;;;;12.82;6.93;;;;;;;-4.99;100.00;95825.16;5114224;27;20039;-47
2022/03/12 01:55:31;;;;;;;20.80;9.73;;;;;;;-5.04;100.00;95822.97;5113809;27;20040;-47
2022/03/12 01:58:01;;;;;;;16.92;8.32;;;;;;;-5.15;100.00;95824.63;5113255;27;20066;-48
2022/03/12 02:00:43;;;;;;;36.85;13.65;;;;;;;-5.24;100.00;95826.94;5115832;27;20043;-49
2022/03/12 02:03:13;;;;;;;18.35;7.03;;;;;;;-5.46;100.00;95826.81;5113829;27;20047;-47
2022/03/12 02:05:41;;;;;;;12.00;6.22;;;;;;;-5.75;100.00;95832.19;5116071;27;20499;-49
2022/03/12 02:08:13;;;;;;;8.05;4.85;;;;;;;-5.93;100.00;95828.38;5117393;27;20047;-46
2022/03/12 02:10:44;;;;;;;8.70;4.57;;;;;;;-6.12;100.00;95834.72;5114943;27;20553;-48
2022/03/12 02:13:11;;;;;;;11.52;4.15;;;;;;;-6.19;100.00;95833.53;5113681;27;20035;-47
2022/03/12 02:15:39;;;;;;;11.43;5.50;;;;;;;-6.24;100.00;95835.56;5114494;27;20466;-48
2022/03/12 02:18:06;;;;;;;9.82;5.18;;;;;;;-6.19;100.00;95838.59;5113934;27;20899;-46
2022/03/12 02:20:36;;;;;;;8.13;4.32;;;;;;;-6.16;100.00;95833.31;5112491;27;20424;-46
2022/03/12 02:23:02;;;;;;;10.10;5.13;;;;;;;-6.15;100.00;95840.00;5091242;28;20067;-46
2022/03/12 02:25:32;;;;;;;10.45;5.35;;;;;;;-6.59;100.00;95780.41;5113541;27;20043;-47
2022/03/12 02:28:01;;;;;;;16.10;5.50;;;;;;;-6.20;100.00;95842.03;5113923;27;20496;-47
2022/03/12 02:30:47;;;;;;;11.45;5.32;;;;;;;-6.16;100.00;95844.28;5112531;27;20404;-50
2022/03/12 02:33:15;;;;;;;13.50;6.95;;;;;;;-6.14;100.00;95846.69;5114755;27;20122;-47
2022/03/12 02:35:42;;;;;;;14.35;6.25;;;;;;;-6.11;100.00;95841.41;5108990;27;20040;-51
2022/03/12 02:38:08;;;;;;;8.43;5.65;;;;;;;-6.12;100.00;95842.34;5111928;27;20111;-47
2022/03/12 02:40:36;;;;;;;7.82;5.28;;;;;;;-6.13;100.00;95845.78;5114420;27;20497;-46
2022/03/12 02:43:06;;;;;;;10.73;4.18;;;;;;;-6.17;100.00;95842.63;5112214;27;20394;-47
2022/03/12 02:45:34;;;;;;;16.17;7.90;;;;;;;-6.19;100.00;95843.66;5112900;27;20123;-47
2022/03/12 02:48:01;;;;;;;25.52;12.00;;;;;;;-6.16;100.00;95853.59;5112530;27;20096;-48
2022/03/12 02:50:27;;;;;;;16.05;7.50;;;;;;;-6.18;100.00;95845.28;5111633;27;20507;-47
2022/03/12 02:52:54;;;;;;;13.00;8.15;;;;;;;-6.15;100.00;95850.16;5111968;27;20097;-46
2022/03/12 02:55:23;;;;;;;12.10;6.70;;;;;;;-6.14;100.00;95851.75;5108729;27;20048;-46
2022/03/12 02:57:51;;;;;;;24.00;7.28;;;;;;;-6.16;100.00;95854.41;5108815;27;20458;-46
2022/03/12 03:00:19;;;;;;;12.63;6.28;;;;;;;-6.16;100.00;95866.28;5108840;27;20043;-47
2022/03/12 03:02:55;;;;;;;10.02;5.45;;;;;;;-6.07;100.00;95862.31;5108646;27;20047;-48
2022/03/12 03:05:41;;;;;;;15.63;7.20;;;;;;;-6.01;100.00;95862.72;5112509;27;20039;-48
2022/03/12 03:08:10;;;;;;;13.73;7.32;;;;;;;-6.03;100.00;95862.00;5113732;27;20118;-47
2022/03/12 03:10:42;;;;;;;14.98;5.70;;;;;;;-6.09;100.00;95859.88;5111186;27;20099;-46
2022/03/12 03:13:17;;;;;;;12.05;6.55;;;;;;;-6.16;100.00;95858.66;5113035;27;20482;-49
2022/03/12 03:15:47;;;;;;;12.10;6.78;;;;;;;-6.18;100.00;95861.28;5113728;27;20104;-48
2022/03/12 03:18:16;;;;;;;11.80;6.82;;;;;;;-6.16;100.00;95864.56;5109696;27;20054;-46
2022/03/12 03:20:45;;;;;;;15.63;7.45;;;;;;;-6.14;100.00;95861.91;5109353;27;20055;-47
2022/03/12 03:23:13;;;;;;;13.85;6.63;;;;;;;-6.17;100.00;95867.19;5109248;27;20069;-48
2022/03/12 03:25:45;;;;;;;15.48;6.15;;;;;;;-6.16;100.00;95864.56;5108569;27;20532;-47
2022/03/12 03:28:12;;;;;;;13.80;7.22;;;;;;;-6.10;100.00;95868.41;5112383;27;20048;-47
2022/03/12 03:30:40;;;;;;;15.88;6.78;;;;;;;-6.09;100.00;95867.47;5113984;27;20050;-46
2022/03/12 03:33:09;;;;;;;9.27;5.38;;;;;;;-6.14;100.00;95861.91;5108491;27;20046;-46
2022/03/12 03:35:38;;;;;;;12.10;7.65;;;;;;;-6.11;100.00;95861.69;5113465;27;20039;-47
2022/03/12 03:38:08;;;;;;;15.52;8.13;;;;;;;-6.05;100.00;95861.31;5109254;27;20051;-46
2022/03/12 03:40:35;;;;;;;10.90;7.03;;;;;;;-6.15;100.00;95870.44;5109321;27;20122;-46
2022/03/12 03:43:06;;;;;;;13.90;6.72;;;;;;;-6.35;100.00;95849.75;5107766;27;20129;-46
2022/03/12 03:45:32;;;;;;;11.25;5.95;;;;;;;-6.36;100.00;95873.47;5109453;27;20044;-50
2022/03/12 03:47:59;;;;;;;17.20;8.43;;;;;;;-6.45;100.00;95874.06;5112163;27;20044;-47
2022/03/12 03:50:27;;;;;;;13.27;7.43;;;;;;;-6.52;100.00;95880.47;5109198;27;20043;-46
2022/03/12 03:53:03;;;;;;;11.23;7.05;;;;;;;-6.54;100.00;95879.75;5107707;27;20126;-46
2022/03/12 03:55:32;;;;;;;19.25;6.47;;;;;;;-6.53;100.00;95882.19;5108745;27;20040;-51
2022/03/12 03:57:59;;;;;;;11.90;6.20;;;;;;;-6.60;100.00;95885.22;5114706;27;20039;-46
2022/03/12 04:00:27;;;;;;;7.20;5.00;;;;;;;-6.62;100.00;95887.06;5094018;27;20042;-46
2022/03/12 04:03:02;;;;;;;8.10;4.43;;;;;;;-6.64;100.00;95886.34;5108705;27;20531;-46
2022/03/12 04:05:32;;;;;;;18.05;7.90;;;;;;;-6.60;100.00;95892.84;5108454;27;20050;-47
2022/03/12 04:08:00;;;;;;;15.45;6.32;;;;;;;-6.59;100.00;95891.91;5110315;27;20096;-49
2022/03/12 04:10:29;;;;;;;10.15;5.97;;;;;;;-6.56;100.00;95896.78;5110326;27;20050;-47
2022/03/12 04:12:57;;;;;;;17.70;8.48;;;;;;;-6.49;100.00;95898.00;5106657;27;20039;-47
2022/03/12 04:15:24;;;;;;;13.70;6.82;;;;;;;-6.35;100.00;95900.47;5108715;27;20434;-47
2022/03/12 04:17:54;;;;;;;14.88;8.38;;;;;;;-6.29;100.00;95898.44;5106787;27;20047;-49
2022/03/12 04:20:22;;;;;;;9.68;6.30;;;;;;;-6.28;100.00;95894.97;5107083;27;20403;-46
2022/03/12 04:22:51;;;;;;;12.88;7.70;;;;;;;-6.26;100.00;95901.59;5107018;27;20107;-46
2022/03/12 04:25:20;;;;;;;11.45;6.10;;;;;;;-6.20;100.00;95903.69;5108119;27;20428;-47
2022/03/12 04:27:48;;;;;;;15.30;6.90;;;;;;;-6.23;100.00;95908.16;5106070;27;20051;-47
2022/03/12 04:30:20;;;;;;;14.27;7.00;;;;;;;-6.25;100.00;95899.84;5110937;27;20043;-46
2022/03/12 04:32:47;;;;;;;14.88;7.40;;;;;;;-6.27;100.00;95904.22;5106789;27;20065;-46
2022/03/12 04:35:16;;;;;;;11.20;6.55;;;;;;;-6.26;100.00;95908.38;5112171;27;20483;-46
2022/03/12 04:37:43;;;;;;;13.20;7.38;;;;;;;-6.33;100.00;95917.31;5106874;27;20043;-46
2022/03/12 04:40:14;;;;;;;13.32;7.47;;;;;;;-6.41;100.00;95921.16;5118438;27;20047;-46
2022/03/12 04:42:44;;;;;;;16.15;7.05;;;;;;;-6.50;100.00;95921.72;5107698;27;20035;-46
2022/03/12 04:45:15;;;;;;;11.32;6.53;;;;;;;-6.68;100.00;95917.84;5109362;27;20038;-46
2022/03/12 04:47:43;;;;;;;13.32;6.45;;;;;;;-6.74;100.00;95924.91;5107391;28;20043;-46
2022/03/12 04:50:14;;;;;;;9.50;4.53;;;;;;;-6.79;100.00;95932.03;5106938;28;20571;-47
2022/03/12 04:52:45;;;;;;;20.80;8.52;;;;;;;-6.84;100.00;95933.19;5107144;28;20051;-48
2022/03/12 04:55:18;;;;;;;23.85;11.38;;;;;;;-6.92;100.00;95931.16;5107124;28;20036;-49
2022/03/12 04:57:46;;;;;;;27.40;13.63;;;;;;;-7.01;100.00;95936.81;5106550;28;20036;-46
2022/03/12 05:00:17;;;;;;;23.70;11.23;;;;;;;-7.06;100.00;95939.59;5111642;27;20096;-47
2022/03/12 05:02:45;;;;;;;18.60;9.65;;;;;;;-7.13;100.00;95943.44;5111298;27;20043;-46
2022/03/12 05:05:14;;;;;;;12.40;7.82;;;;;;;-7.19;100.00;95949.69;5113858;27;20523;-46
2022/03/12 05:07:44;;;;;;;14.70;7.63;;;;;;;-7.26;100.00;95940.84;5116680;27;20555;-47
2022/03/12 05:10:13;;;;;;;14.27;8.63;;;;;;;-7.35;100.00;95941.41;5112477;27;20075;-48
2022/03/12 05:12:40;;;;;;;15.68;7.65;;;;;;;-7.42;100.00;95946.03;5123657;27;20043;-46
2022/03/12 05:15:12;;;;;;;13.38;6.32;;;;;;;-7.44;100.00;95945.31;5116913;27;20065;-46
2022/03/12 05:17:47;;;;;;;9.13;5.47;;;;;;;-7.57;100.00;95949.50;5113442;27;21649;-46
2022/03/12 05:20:21;;;;;;;18.75;8.70;;;;;;;-7.55;100.00;95958.59;5114483;27;20039;-46
2022/03/12 05:22:49;;;;;;;14.40;6.88;;;;;;;-7.56;100.00;95957.00;5110700;27;20117;-47
2022/03/12 05:25:18;;;;;;;26.88;11.82;;;;;;;-7.58;100.00;95953.75;5115028;27;20117;-47
2022/03/12 05:27:51;;;;;;;14.43;7.53;;;;;;;-7.62;100.00;95956.53;5111586;27;20063;-46
2022/03/12 05:30:19;;;;;;;35.05;15.93;;;;;;;-7.63;100.00;95962.50;5112188;27;20044;-47
2022/03/12 05:32:46;;;;;;;22.05;11.50;;;;;;;-7.60;100.00;95959.78;5111878;27;20501;-46
2022/03/12 05:35:17;;;;;;;28.13;17.30;;;;;;;-7.61;100.00;95953.94;5110477;27;20044;-46
2022/03/12 05:37:45;;;;;;;37.55;18.73;;;;;;;-7.44;100.00;95959.69;5113812;27;20503;-47
2022/03/12 05:40:18;;;;;;;35.05;16.77;;;;;;;-7.37;100.00;95950.81;5116224;27;20126;-47
2022/03/12 05:42:47;;;;;;;28.40;16.15;;;;;;;-7.22;100.00;95964.25;5113993;27;20436;-50
2022/03/12 05:45:18;;;;;;;36.05;19.80;;;;;;;-7.03;100.00;95963.94;5114475;27;20047;-47
2022/03/12 05:47:46;;;;;;;29.67;16.20;;;;;;;-6.89;100.00;95971.50;5126984;27;20409;-46
2022/03/12 05:50:14;;;;;;;33.88;18.10;;;;;;;-6.89;100.00;95970.69;5113453;27;20035;-47
2022/03/12 05:52:47;;;;;;;32.90;15.07;;;;;;;-6.88;100.00;95968.03;5113725;27;20082;-47
2022/03/12 05:55:16;;;;;;;25.88;14.80;;;;;;;-6.84;100.00;95974.56;5112447;27;20048;-46
2022/03/12 05:57:44;;;;;;;28.88;16.10;;;;;;;-6.73;100.00;95987.38;5111251;27;20032;-47
2022/03/12 06:00:12;;;;;;;24.20;12.73;;;;;;;-6.65;100.00;95968.34;5110755;27;20047;-46
2022/03/12 06:02:49;;;;;;;22.55;10.82;;;;;;;-6.44;100.00;95991.50;5114902;27;20047;-49
2022/03/12 06:05:23;;;;;;;17.02;10.85;;;;;;;-6.38;100.00;95991.91;5115308;27;20130;-46
2022/03/12 06:07:52;;;;;;;21.92;10.45;;;;;;;-6.30;100.00;95990.63;5115530;27;20065;-46
2022/03/12 06:10:21;;;;;;;14.25;9.00;;;;;;;-6.24;100.00;95992.78;5112053;27;20468;-46
2022/03/12 06:12:51;;;;;;;16.05;8.57;;;;;;;-6.18;100.00;95992.38;5111080;27;20051;-46
2022/03/12 06:15:25;;;;;;;15.07;8.25;;;;;;;-5.96;100.00;96000.22;5114753;27;20526;-48
2022/03/12 06:17:53;;;;;;;9.82;6.13;;;;;;;-5.77;100.00;96009.13;5113250;27;20067;-47
2022/03/12 06:20:23;;;;;;;10.63;5.72;;;;;;;-5.59;100.00;96009.63;5110833;27;20096;-49
2022/03/12 06:22:52;;;;;;;11.80;6.95;;;;;;;-5.42;99.40;96008.47;5111816;27;20442;-48
2022/03/12 06:25:22;;;;;;;18.40;7.85;;;;;;;-5.22;98.13;96018.13;5111903;27;20044;-49
2022/03/12 06:27:55;;;;;;;14.85;9.60;;;;;;;-4.99;96.88;96023.34;5110613;27;20038;-47
2022/03/12 06:30:24;;;;;;;12.48;7.75;;;;;;;-4.78;93.79;96030.41;5110790;27;20047;-47
2022/03/12 06:32:55;;;;;;;50.67;14.77;;;;;;;-4.51;93.11;96020.84;5097868;27;20058;-48
2022/03/12 06:35:23;;;;;;;37.55;12.82;;;;;;;-4.23;91.70;96034.16;5106250;27;20055;-48
2022/03/12 06:37:50;;;;;;;31.15;12.13;;;;;;;-3.95;91.01;96039.78;5105751;27;20425;-50
2022/03/12 06:40:20;;;;;;;47.15;14.35;;;;;;;-3.74;88.84;96037.41;5109069;27;20069;-47
2022/03/12 06:42:51;;;;;;;45.28;13.25;;;;;;;-3.53;88.06;96037.53;5107351;27;20516;-48
2022/03/12 06:45:18;;;;;;;13.73;6.65;;;;;;;-3.35;84.87;96037.91;5087069;27;20048;-47
2022/03/12 06:47:46;;;;;;;28.10;12.93;;;;;;;-3.39;86.93;96031.44;5093918;27;20067;-48
2022/03/12 06:50:18;;;;;;;23.25;10.75;;;;;;;-3.41;89.12;96039.19;5112849;27;20706;-49
2022/03/12 06:52:48;;;;;;;29.92;15.65;;;;;;;-3.29;90.72;96038.25;5109849;27;20079;-48
2022/03/12 06:55:18;;;;;;;23.52;13.35;;;;;;;-3.58;92.57;96043.00;5108879;27;20047;-47
2022/03/12 06:57:47;;;;;;;25.13;12.02;;;;;;;-3.36;91.97;96051.59;5111375;27;20405;-48
2022/03/12 07:00:17;;;;;;;41.03;19.20;;;;;;;-3.16;91.80;96052.63;5110103;27;20101;-52
2022/03/12 07:02:47;;;;;;;31.08;11.40;;;;;;;-3.32;90.37;96048.69;5113741;27;20051;-48
2022/03/12 07:05:15;;;;;;;17.42;8.23;;;;;;;-3.59;85.82;96038.00;5109995;27;20074;-47
2022/03/12 07:07:45;;;;;;;20.33;8.57;;;;;;;-3.24;85.08;96057.47;5112339;27;20047;-47
2022/03/12 07:10:12;;;;;;;15.98;8.48;;;;;;;-3.09;83.45;96064.78;5108204;27;20758;-48
2022/03/12 07:12:45;;;;;;;9.90;5.15;;;;;;;-3.32;79.74;96063.97;5109913;27;20047;-48
2022/03/12 07:15:12;;;;;;;7.55;3.22;;;;;;;-3.45;79.16;96073.47;5094752;27;22011;-47
2022/03/12 07:17:41;;;;;;;7.38;4.00;;;;;;;-3.43;77.49;96074.16;5113433;27;20067;-50
2022/03/12 07:20:13;;;;;;;6.82;4.40;;;;;;;-3.28;76.60;96078.13;5110530;27;20126;-51
2022/03/12 07:22:40;;;;;;;6.32;4.28;;;;;;;-3.11;77.48;96081.13;5111696;27;20067;-47
2022/03/12 07:25:08;;;;;;;6.32;3.45;;;;;;;-3.01;76.34;96092.25;5114295;27;20038;-48
2022/03/12 07:27:35;;;;;;;7.40;3.78;;;;;;;-2.91;75.94;96093.19;5118298;27;20520;-47
2022/03/12 07:30:03;;;;;;;6.80;4.18;;;;;;;-2.59;74.89;96092.47;5113140;27;20488;-47
2022/03/12 07:32:30;;;;;;;5.65;3.35;;;;;;;-2.24;73.80;96090.66;5115179;27;20093;-49
2022/03/12 07:34:57;;;;;;;6.60;3.30;;;;;;;-2.25;71.12;96092.41;5112273;27;20039;-49
2022/03/12 07:37:23;;;;;;;9.55;3.60;;;;;;;-2.28;71.30;96095.19;5111632;27;20474;-46
2022/03/12 07:39:51;;;;;;;6.07;3.67;;;;;;;-2.18;71.29;96090.97;5110185;27;20645;-47
2022/03/12 07:42:18;;;;;;;9.30;3.30;;;;;;;-1.70;70.41;96094.03;5109642;27;20039;-46
2022/03/12 07:44:45;;;;;;;9.55;4.05;;;;;;;-1.69;69.39;96100.75;5110809;27;20039;-47
2022/03/12 07:47:12;;;;;;;3.78;2.22;;;;;;;-1.75;63.57;96108.00;5089830;27;20050;-50
2022/03/12 07:49:39;;;;;;;5.30;2.65;;;;;;;-1.96;64.56;96099.50;5112465;27;20059;-47
2022/03/12 07:52:06;;;;;;;4.72;2.72;;;;;;;-2.14;64.61;96111.97;5114118;27;20084;-46
2022/03/12 07:54:34;;;;;;;7.43;4.78;;;;;;;-2.17;64.13;96102.78;5106567;27;20051;-46
2022/03/12 07:57:01;;;;;;;3.85;3.05;;;;;;;-2.25;63.22;96110.25;5109153;27;20462;-50
2022/03/12 07:59:29;;;;;;;1.70;1.50;;;;;;;-2.16;62.49;96104.44;5110657;27;20089;-46
2022/03/12 08:01:57;;;;;;;8.48;4.43;;;;;;;-2.16;64.68;96101.88;5112026;27;20046;-46
2022/03/12 08:04:26;;;;;;;5.65;3.50;;;;;;;-2.05;65.78;96100.19;5103723;27;20134;-46
2022/03/12 08:06:59;;;;;;;4.47;1.40;;;;;;;-2.37;62.29;96101.00;5076805;27;20146;-46
2022/03/12 08:09:26;;;;;;;10.52;4.32;;;;;;;-2.73;63.89;96105.47;5102900;27;20059;-46
2022/03/12 08:11:52;;;;;;;6.35;3.85;;;;;;;-2.58;65.21;96104.28;5107633;27;20068;-47
2022/03/12 08:14:22;;;;;;;3.05;1.80;;;;;;;-2.55;63.78;96109.16;5107223;27;20050;-45
2022/03/12 08:16:51;;;;;;;6.10;4.25;;;;;;;-2.70;63.84;96110.34;5103615;27;20059;-46
2022/03/12 08:19:21;;;;;;;2.47;1.92;;;;;;;-2.86;62.92;96089.47;5105940;27;20142;-48
2022/03/12 08:21:50;;;;;;;9.02;4.25;;;;;;;-2.54;64.14;96110.78;5105419;27;20660;-47
2022/03/12 08:24:18;;;;;;;2.95;1.80;;;;;;;-2.43;60.90;96101.47;5103432;27;20482;-48
2022/03/12 08:26:46;;;;;;;8.75;4.45;;;;;;;-2.27;64.46;96107.00;5103328;27;20120;-48
2022/03/12 08:29:14;;;;;;;8.85;4.32;;;;;;;-2.02;61.89;96115.28;5101947;27;20055;-47
2022/03/12 08:31:42;;;;;;;8.10;4.43;;;;;;;-1.95;59.41;96119.78;5103281;27;20050;-48
2022/03/12 08:34:11;;;;;;;9.75;5.20;;;;;;;-1.73;59.35;96121.47;5104983;27;20056;-48
2022/03/12 08:36:38;;;;;;;11.98;5.32;;;;;;;-1.62;57.87;96123.16;5101584;27;20044;-47
2022/03/12 08:39:05;;;;;;;8.82;4.75;;;;;;;-1.66;56.68;96113.28;5102998;27;20058;-47
2022/03/12 08:41:34;;;;;;;9.55;4.57;;;;;;;-1.33;56.57;96106.38;5104696;27;20039;-47
2022/03/12 08:44:02;;;;;;;6.20;3.10;;;;;;;-1.39;53.47;96117.91;5107654;27;20062;-47
2022/03/12 08:46:29;;;;;;;5.90;4.22;;;;;;;-1.31;56.47;96115.53;5112482;28;20040;-47
2022/03/12 08:48:56;;;;;;;11.43;3.28;;;;;;;-1.23;54.05;96117.47;5114337;27;20058;-47
2022/03/12 08:51:23;;;;;;;8.45;4.45;;;;;;;-1.24;54.79;96121.78;5110948;28;20104;-47
2022/03/12 08:53:50;;;;;;;5.22;3.38;;;;;;;-1.32;55.69;96113.13;5110020;27;20416;-47
2022/03/12 08:56:17;;;;;;;8.57;4.57;;;;;;;-0.96;56.01;96120.28;5102464;28;20047;-47
2022/03/12 08:58:44;;;;;;;11.13;4.38;;;;;;;-0.62;55.04;96116.66;5107049;28;20059;-48
2022/03/12 09:01:12;;;;;;;5.78;3.08;;;;;;;-0.44;53.64;96119.41;5109142;28;20069;-48
2022/03/12 09:03:40;;;;;;;3.05;2.15;;;;;;;-0.50;55.16;96125.06;5110514;28;20055;-47
2022/03/12 09:06:07;;;;;;;5.43;2.92;;;;;;;-0.37;54.67;96120.50;5103535;28;20043;-47
2022/03/12 09:08:34;;;;;;;6.82;4.22;;;;;;;0.16;55.81;96117.63;5107191;28;20441;-48
2022/03/12 09:11:02;;;;;;;8.15;4.65;;;;;;;0.43;52.58;96123.81;5106280;28;20114;-47
2022/03/12 09:13:28;;;;;;;5.25;2.65;;;;;;;0.46;52.37;96122.75;5110002;28;20052;-49
2022/03/12 09:15:56;;;;;;;5.15;2.65;;;;;;;0.12;51.15;96126.50;5105943;28;20051;-47
2022/03/12 09:18:23;;;;;;;5.85;2.70;;;;;;;-0.55;55.34;96116.97;5111434;27;20067;-47
2022/03/12 09:20:51;;;;;;;1.90;1.35;;;;;;;-1.22;58.26;96124.22;5111037;28;20120;-48
2022/03/12 09:23:20;;;;;;;2.33;1.83;;;;;;;-1.63;58.99;96136.03;5111855;28;20039;-47
2022/03/12 09:25:49;;;;;;;8.13;3.45;;;;;;;-1.59;62.92;96132.28;5110122;28;20040;-47
2022/03/12 09:28:20;;;;;;;5.60;3.83;;;;;;;-1.58;59.00;96121.16;5114688;27;20543;-47
2022/03/12 09:30:51;;;;;;;1.75;0.98;;;;;;;-1.54;59.50;96127.63;5110395;28;20055;-49
2022/03/12 09:33:20;;;;;;;3.15;1.73;;;;;;;-1.30;60.44;96124.00;5109560;27;20048;-48
2022/03/12 09:35:49;;;;;;;3.05;1.85;;;;;;;-1.66;59.40;96120.94;5105785;28;20051;-48
2022/03/12 09:38:16;;;;;;;6.20;3.67;;;;;;;-1.80;60.05;96133.09;5108072;28;20047;-47
2022/03/12 09:40:44;;;;;;;3.15;1.90;;;;;;;-1.85;56.84;96135.19;5107673;28;20048;-49
2022/03/12 09:43:11;;;;;;;6.63;3.45;;;;;;;-1.80;60.51;96128.00;5105363;28;20044;-47
2022/03/12 09:45:39;;;;;;;2.38;1.80;;;;;;;-1.76;58.67;96136.22;5106004;27;20073;-47
2022/03/12 09:48:07;;;;;;;3.10;2.20;;;;;;;-1.90;59.78;96134.75;5106991;27;20114;-46
2022/03/12 09:50:35;;;;;;;1.42;1.10;;;;;;;-2.10;59.63;96138.88;5106429;27;20050;-47
2022/03/12 09:53:03;;;;;;;8.23;3.60;;;;;;;-1.99;58.94;96140.59;5103981;27;20044;-47
2022/03/12 09:55:30;;;;;;;4.18;3.10;;;;;;;-1.90;59.35;96139.84;5109481;27;20031;-48
2022/03/12 09:57:57;;;;;;;9.95;3.60;;;;;;;-1.77;59.21;96140.50;5097719;27;20040;-48
2022/03/12 10:00:27;;;;;;;4.60;2.97;;;;;;;-1.51;57.73;96140.16;5096554;27;20370;-48
2022/03/12 10:02:54;;;;;;;4.53;2.78;;;;;;;-1.31;57.93;96140.31;5102307;27;20097;-48
2022/03/12 10:05:21;;;;;;;7.55;3.95;;;;;;;-1.10;60.04;96135.16;5112017;27;20062;-46
2022/03/12 10:07:49;;;;;;;7.05;3.58;;;;;;;-0.85;56.96;96136.50;5109307;27;20060;-47
2022/03/12 10:10:19;;;;;;;9.48;4.47;;;;;;;-0.56;56.18;96133.25;5113150;27;20063;-48
2022/03/12 10:12:47;;;;;;;7.88;4.05;;;;;;;-0.10;55.85;96126.78;5108544;27;20046;-48
2022/03/12 10:15:17;;;;;;;11.35;5.47;;;;;;;0.65;60.35;96121.91;5116077;27;20044;-47
2022/03/12 10:17:45;;;;;;;5.80;3.40;;;;;;;1.27;52.40;96133.34;5089725;27;20126;-47
2022/03/12 10:20:12;;;;;;;7.10;3.88;;;;;;;1.55;51.90;96124.88;5114556;27;20481;-49
2022/03/12 10:22:41;;;;;;;24.38;14.90;;;;;;;1.68;49.75;96133.84;5109583;27;20044;-49
2022/03/12 10:25:09;;;;;;;16.45;8.50;;;;;;;1.50;51.45;96126.09;5110146;27;20039;-48
2022/03/12 10:27:38;;;;;;;14.63;7.38;;;;;;;0.95;49.97;96124.28;5110406;27;20127;-49
2022/03/12 10:30:07;;;;;;;10.63;6.30;;;;;;;0.57;52.67;96120.03;5111502;27;20035;-46
2022/03/12 10:32:44;;;;;;;9.48;5.55;;;;;;;0.46;50.15;96123.53;5111691;27;20126;-47
2022/03/12 10:35:19;;;;;;;3.30;2.15;;;;;;;0.18;49.29;96115.75;5111271;27;20138;-47
2022/03/12 10:37:48;;;;;;;4.50;2.53;;;;;;;0.32;52.84;96118.81;5109229;27;20075;-48
2022/03/12 10:40:19;;;;;;;5.30;2.38;;;;;;;0.23;51.41;96122.22;5107044;27;20092;-49
2022/03/12 10:42:56;;;;;;;6.05;3.80;;;;;;;0.51;58.14;96111.13;5097904;27;20047;-50
2022/03/12 10:45:30;;;;;;;10.75;4.70;;;;;;;1.08;57.51;96112.88;5098629;27;20056;-48
2022/03/12 10:47:59;;;;;;;5.70;4.25;;;;;;;0.85;53.91;96097.84;5104770;27;20066;-47
2022/03/12 10:50:30;;;;;;;5.85;3.22;;;;;;;0.53;51.14;96109.25;5103936;27;20498;-48
2022/03/12 10:52:58;;;;;;;5.30;2.67;;;;;;;0.30;55.10;96107.91;5103380;27;20499;-50
2022/03/12 10:55:29;;;;;;;5.13;2.38;;;;;;;0.27;52.94;96103.03;5103242;27;20444;-47
2022/03/12 10:58:05;;;;;;;5.00;2.40;;;;;;;0.47;56.20;96094.41;5087256;28;20047;-48
2022/03/12 11:00:36;;;;;;;4.78;2.50;;;;;;;0.66;54.04;96092.75;5084832;27;20428;-49
2022/03/12 11:03:08;;;;;;;6.43;3.05;;;;;;;1.13;56.05;96095.31;5099594;27;20555;-47
2022/03/12 11:05:36;;;;;;;6.18;3.25;;;;;;;1.39;55.68;96079.25;5107268;27;20152;-48
2022/03/12 11:08:08;;;;;;;9.25;3.08;;;;;;;1.43;54.64;96075.47;5104644;27;20035;-49
2022/03/12 11:10:37;;;;;;;4.90;3.03;;;;;;;1.27;55.32;96082.03;5107709;27;20117;-49
2022/03/12 11:13:04;;;;;;;7.50;3.85;;;;;;;1.64;57.22;96077.78;5109507;27;20044;-48
2022/03/12 11:15:32;;;;;;;4.32;2.53;;;;;;;1.90;54.70;96083.03;5105096;27;20043;-49
2022/03/12 11:18:05;;;;;;;8.70;4.78;;;;;;;2.10;56.34;96079.34;5106874;27;20039;-48
2022/03/12 11:20:36;;;;;;;4.40;3.23;;;;;;;2.06;51.72;96072.09;5107760;27;20115;-47
2022/03/12 11:23:23;;;;;;;11.38;4.68;;;;;;;1.84;49.38;96073.34;5109269;27;20043;-48
2022/03/12 11:25:59;;;;;;;5.65;3.08;;;;;;;1.77;55.14;96067.19;5105477;27;20093;-47
2022/03/12 11:28:29;;;;;;;7.53;3.97;;;;;;;1.91;44.83;96070.03;5107261;27;20052;-49
2022/03/12 11:30:56;;;;;;;6.40;2.88;;;;;;;2.08;50.25;96068.41;5103964;27;20036;-47
2022/03/12 11:33:26;;;;;;;5.20;2.55;;;;;;;2.00;51.92;96063.22;5100415;27;20535;-48